createdAt,value
2023-01-05T00:01:14.645Z,9.73
2023-01-05T00:03:41.594Z,9.02
2023-01-05T00:06:12.145Z,14.07
2023-01-05T00:08:39.800Z,14.00
2023-01-05T00:11:26.697Z,12.25
2023-01-05T00:14:14.140Z,15.77
2023-01-05T00:16:59.818Z,5.72
2023-01-05T00:19:47.540Z,9.25
2023-01-05T00:22:33.330Z,9.43
2023-01-05T00:25:10.894Z,8.95
2023-01-05T00:27:40.239Z,9.13
2023-01-05T00:30:10.337Z,10.15
2023-01-05T00:32:37.085Z,11.57
2023-01-05T00:35:04.016Z,6.80
2023-01-05T00:37:33.402Z,12.65
2023-01-05T00:40:02.639Z,11.68
2023-01-05T00:42:29.377Z,11.15
2023-01-05T00:44:56.056Z,11.75
2023-01-05T00:47:22.872Z,13.65
2023-01-05T00:49:52.065Z,10.32
2023-01-05T00:52:18.785Z,10.85
2023-01-05T00:54:45.477Z,7.65
2023-01-05T00:57:13.682Z,12.27
2023-01-05T00:59:40.635Z,20.83
2023-01-05T01:02:08.514Z,6.72
2023-01-05T01:04:36.023Z,10.23
2023-01-05T01:07:03.773Z,13.63
2023-01-05T01:09:30.720Z,12.73
2023-01-05T01:12:00.139Z,14.52
2023-01-05T01:14:27.557Z,8.10
2023-01-05T01:16:54.315Z,11.80
2023-01-05T01:19:25.634Z,8.48
2023-01-05T01:21:52.487Z,10.85
2023-01-05T01:24:25.048Z,11.02
2023-01-05T01:26:52.147Z,12.18
2023-01-05T01:29:20.040Z,9.38
2023-01-05T01:31:52.665Z,10.55
2023-01-05T01:34:19.538Z,11.30
2023-01-05T01:36:49.278Z,10.50
2023-01-05T01:39:18.618Z,11.00
2023-01-05T01:41:49.784Z,8.95
2023-01-05T01:44:48.088Z,10.85
2023-01-05T01:47:21.961Z,13.85
2023-01-05T01:49:53.679Z,13.27
2023-01-05T01:52:23.310Z,11.80
2023-01-05T01:54:52.243Z,12.10
2023-01-05T01:57:19.212Z,9.60
2023-01-05T01:59:46.147Z,9.80
2023-01-05T02:02:15.440Z,10.10
2023-01-05T02:04:44.315Z,13.65
2023-01-05T02:07:15.132Z,11.73
2023-01-05T02:09:42.406Z,13.05
2023-01-05T02:12:30.674Z,18.25
2023-01-05T02:15:15.256Z,14.30
2023-01-05T02:18:13.513Z,11.68
2023-01-05T02:21:04.547Z,12.50
2023-01-05T02:23:47.060Z,13.48
2023-01-05T02:26:47.897Z,13.20
2023-01-05T02:29:26.149Z,10.73
2023-01-05T02:32:05.424Z,17.98
2023-01-05T02:34:35.145Z,13.95
2023-01-05T02:37:15.604Z,17.85
2023-01-05T02:40:03.063Z,11.25
2023-01-05T02:42:34.477Z,10.02
2023-01-05T02:45:07.209Z,13.15
2023-01-05T02:47:46.174Z,15.10
2023-01-05T02:50:25.356Z,11.23
2023-01-05T02:53:27.573Z,13.50
2023-01-05T02:56:00.883Z,15.23
2023-01-05T02:58:33.909Z,12.45
2023-01-05T03:01:02.469Z,11.05
2023-01-05T03:03:37.702Z,12.55
2023-01-05T03:06:10.031Z,14.38
2023-01-05T03:08:48.155Z,12.57
2023-01-05T03:11:33.380Z,19.00
2023-01-05T03:14:00.005Z,13.23
2023-01-05T03:16:30.942Z,8.15
2023-01-05T03:19:20.873Z,7.45
2023-01-05T03:24:56.886Z,17.42
2023-01-05T03:27:43.044Z,18.25
2023-01-05T03:30:30.308Z,8.73
2023-01-05T03:33:28.355Z,15.95
2023-01-05T03:35:58.960Z,19.30
2023-01-05T03:38:35.108Z,13.70
2023-01-05T03:41:05.677Z,13.10
2023-01-05T03:43:36.712Z,15.18
2023-01-05T03:46:10.872Z,13.60
2023-01-05T03:48:37.655Z,9.13
2023-01-05T03:51:05.010Z,12.55
2023-01-05T03:53:31.672Z,13.65
2023-01-05T03:56:01.482Z,10.57
2023-01-05T03:58:28.197Z,17.10
2023-01-05T04:00:54.920Z,11.35
2023-01-05T04:03:24.077Z,7.57
2023-01-05T04:05:56.848Z,10.98
2023-01-05T04:08:23.524Z,12.63
2023-01-05T04:10:53.360Z,13.35
2023-01-05T04:15:46.900Z,13.60
2023-01-05T04:18:13.967Z,12.07
2023-01-05T04:20:40.789Z,11.75
2023-01-05T04:23:07.613Z,12.40
2023-01-05T04:25:34.471Z,14.48
2023-01-05T04:28:01.205Z,10.40
2023-01-05T04:30:30.279Z,15.60
2023-01-05T04:32:59.608Z,9.83
2023-01-05T04:35:26.353Z,11.15
2023-01-05T04:37:53.052Z,11.45
2023-01-05T04:40:19.748Z,20.25
2023-01-05T04:42:49.108Z,15.02
2023-01-05T04:45:15.839Z,9.35
2023-01-05T04:47:45.007Z,18.55
2023-01-05T04:50:11.873Z,10.73
2023-01-05T04:52:38.671Z,17.60
2023-01-05T04:55:06.240Z,12.32
2023-01-05T04:57:35.651Z,15.80
2023-01-05T05:00:03.906Z,13.48
2023-01-05T05:02:35.688Z,13.38
2023-01-05T05:05:02.838Z,11.95
2023-01-05T05:07:31.778Z,10.05
2023-01-05T05:09:58.443Z,17.20
2023-01-05T05:12:25.166Z,11.77
2023-01-05T05:14:51.884Z,11.02
2023-01-05T05:17:20.860Z,14.45
2023-01-05T05:19:47.537Z,12.13
2023-01-05T05:22:14.249Z,9.75
2023-01-05T05:24:41.020Z,16.55
2023-01-05T05:27:07.783Z,10.90
2023-01-05T05:29:34.463Z,16.20
2023-01-05T05:32:01.141Z,14.88
2023-01-05T05:34:27.807Z,14.13
2023-01-05T05:36:56.933Z,11.52
2023-01-05T05:39:26.116Z,20.92
2023-01-05T05:41:55.340Z,17.30
2023-01-05T05:44:24.230Z,15.80
2023-01-05T05:46:53.721Z,10.02
2023-01-05T05:49:20.508Z,14.68
2023-01-05T05:51:47.232Z,19.75
2023-01-05T05:54:14.038Z,15.52
2023-01-05T05:56:40.739Z,16.52
2023-01-05T05:59:09.606Z,14.98
2023-01-05T06:01:36.397Z,12.65
2023-01-05T06:04:03.204Z,16.63
2023-01-05T06:06:29.976Z,19.98
2023-01-05T06:08:56.751Z,15.75
2023-01-05T06:11:23.445Z,16.13
2023-01-05T06:13:50.259Z,14.90
2023-01-05T06:16:17.184Z,13.05
2023-01-05T06:18:43.912Z,11.93
2023-01-05T06:21:10.650Z,14.63
2023-01-05T06:23:39.742Z,21.63
2023-01-05T06:26:06.563Z,14.27
2023-01-05T06:28:33.271Z,12.52
2023-01-05T06:30:59.956Z,16.13
2023-01-05T06:33:26.611Z,16.88
2023-01-05T06:35:53.359Z,21.58
2023-01-05T06:38:21.308Z,13.93
2023-01-05T06:40:48.345Z,13.88
2023-01-05T06:43:15.273Z,10.07
2023-01-05T06:45:41.974Z,10.90
2023-01-05T06:48:10.910Z,11.18
2023-01-05T06:50:39.894Z,17.52
2023-01-05T06:53:06.606Z,20.38
2023-01-05T06:55:35.770Z,16.30
2023-01-05T06:58:02.488Z,9.30
2023-01-05T07:00:29.851Z,11.50
2023-01-05T07:02:56.568Z,12.30
2023-01-05T07:05:24.412Z,13.00
2023-01-05T07:07:51.468Z,14.73
2023-01-05T07:10:18.335Z,11.13
2023-01-05T07:12:45.018Z,17.50
2023-01-05T07:15:16.779Z,12.15
2023-01-05T07:17:43.491Z,16.08
2023-01-05T07:20:12.925Z,16.00
2023-01-05T07:22:39.624Z,18.05
2023-01-05T07:25:06.775Z,9.32
2023-01-05T07:27:35.635Z,11.77
2023-01-05T07:30:08.292Z,17.00
2023-01-05T07:32:34.976Z,16.30
2023-01-05T07:35:01.675Z,13.88
2023-01-05T07:37:30.802Z,12.75
2023-01-05T07:39:57.589Z,17.25
2023-01-05T07:42:25.982Z,14.10
2023-01-05T07:44:54.283Z,13.05
2023-01-05T07:47:23.193Z,21.15
2023-01-05T07:49:50.025Z,13.13
2023-01-05T07:52:19.217Z,17.50
2023-01-05T07:54:50.709Z,16.75
2023-01-05T07:57:19.528Z,15.82
2023-01-05T07:59:46.224Z,15.52
2023-01-05T08:02:13.014Z,24.83
2023-01-05T08:04:42.262Z,27.58
2023-01-05T08:07:11.822Z,12.95
2023-01-05T08:09:57.871Z,22.45
2023-01-05T08:12:24.684Z,15.93
2023-01-05T08:14:51.374Z,14.38
2023-01-05T08:17:18.059Z,18.60
2023-01-05T08:19:47.775Z,18.20
2023-01-05T08:22:14.561Z,13.98
2023-01-05T08:24:43.485Z,22.23
2023-01-05T08:27:10.330Z,17.55
2023-01-05T08:29:39.572Z,16.15
2023-01-05T08:32:08.812Z,24.95
2023-01-05T08:34:35.652Z,19.27
2023-01-05T08:37:04.556Z,19.55
2023-01-05T08:39:31.327Z,16.15
2023-01-05T08:42:02.591Z,15.18
2023-01-05T08:44:29.750Z,15.02
2023-01-05T08:46:56.589Z,12.73
2023-01-05T08:49:25.547Z,11.55
2023-01-05T08:51:52.193Z,16.77
2023-01-05T08:54:18.893Z,17.10
2023-01-05T08:56:50.517Z,18.33
2023-01-05T08:59:17.222Z,17.27
2023-01-05T09:01:44.035Z,19.17
2023-01-05T09:04:10.853Z,17.13
2023-01-05T09:06:37.536Z,16.83
2023-01-05T09:09:05.365Z,14.85
2023-01-05T09:11:32.103Z,19.15
2023-01-05T09:14:04.373Z,15.98
2023-01-05T09:17:05.230Z,15.60
2023-01-05T09:21:55.977Z,15.30
2023-01-05T09:24:22.743Z,21.35
2023-01-05T09:26:50.238Z,19.48
2023-01-05T09:29:17.321Z,21.75
2023-01-05T09:31:46.484Z,18.30
2023-01-05T09:34:13.273Z,12.95
2023-01-05T09:36:40.108Z,12.52
2023-01-05T09:39:07.114Z,19.35
2023-01-05T09:41:38.818Z,15.15
2023-01-05T09:44:30.112Z,17.60
2023-01-05T09:47:11.213Z,17.80
2023-01-05T09:49:42.783Z,17.30
2023-01-05T09:52:11.935Z,18.65
2023-01-05T09:54:41.340Z,14.27
2023-01-05T09:57:17.479Z,16.73
2023-01-05T09:59:49.844Z,25.40
2023-01-05T10:02:37.228Z,16.45
2023-01-05T10:05:05.813Z,21.02
2023-01-05T10:07:58.690Z,21.92
2023-01-05T10:10:44.243Z,16.38
2023-01-05T10:13:28.462Z,19.65
2023-01-05T10:15:56.058Z,15.55
2023-01-05T10:18:30.920Z,16.88
2023-01-05T10:21:28.119Z,20.83
2023-01-05T10:24:08.979Z,17.55
2023-01-05T10:27:33.001Z,17.30
2023-01-05T10:30:08.276Z,20.67
2023-01-05T10:32:49.750Z,21.55
2023-01-05T10:35:59.126Z,19.70
2023-01-05T10:38:31.668Z,20.60
2023-01-05T10:41:36.173Z,20.58
2023-01-05T10:44:11.772Z,21.23
2023-01-05T10:46:48.654Z,19.95
2023-01-05T10:49:26.720Z,20.67
2023-01-05T10:51:57.010Z,14.75
2023-01-05T10:54:43.105Z,15.93
2023-01-05T10:57:34.215Z,15.27
2023-01-05T11:00:18.269Z,16.38
2023-01-05T11:03:04.125Z,13.90
2023-01-05T11:05:41.475Z,15.75
2023-01-05T11:08:19.227Z,19.60
2023-01-05T11:11:03.857Z,14.65
2023-01-05T11:13:41.037Z,18.80
2023-01-05T11:16:13.485Z,12.82
2023-01-05T11:18:48.401Z,16.13
2023-01-05T11:21:18.687Z,22.95
2023-01-05T11:23:52.176Z,18.13
2023-01-05T11:26:18.838Z,17.65
2023-01-05T11:29:04.179Z,17.08
2023-01-05T11:31:37.320Z,15.82
2023-01-05T11:34:26.967Z,13.57
2023-01-05T11:37:04.116Z,20.15
2023-01-05T11:39:36.056Z,14.18
2023-01-05T11:42:21.488Z,12.27
2023-01-05T11:44:58.630Z,14.30
2023-01-05T11:47:30.830Z,14.05
2023-01-05T11:49:59.334Z,17.88
2023-01-05T11:52:47.440Z,10.77
2023-01-05T11:55:20.115Z,13.38
2023-01-05T11:57:55.918Z,14.02
2023-01-05T12:00:41.077Z,16.40
2023-01-05T12:03:16.721Z,15.23
2023-01-05T12:05:53.136Z,16.75
2023-01-05T12:08:38.691Z,14.98
2023-01-05T12:11:15.598Z,16.00
2023-01-05T12:14:04.121Z,14.13
2023-01-05T12:16:49.496Z,14.55
2023-01-05T12:19:55.594Z,11.57
2023-01-05T12:22:56.030Z,11.40
2023-01-05T12:25:34.681Z,10.43
2023-01-05T12:28:10.421Z,14.68
2023-01-05T12:33:35.497Z,13.02
2023-01-05T12:34:13.343Z,11.35
2023-01-05T12:37:19.204Z,12.00
2023-01-05T12:39:51.624Z,12.85
2023-01-05T12:42:43.261Z,13.38
2023-01-05T12:45:31.771Z,12.70
2023-01-05T12:48:43.385Z,11.10
2023-01-05T12:51:27.121Z,12.00
2023-01-05T12:54:19.357Z,11.80
2023-01-05T12:56:51.356Z,15.55
2023-01-05T12:59:45.441Z,10.75
2023-01-05T13:02:15.689Z,17.80
2023-01-05T13:04:54.433Z,13.07
2023-01-05T13:07:25.548Z,13.60
2023-01-05T13:10:06.502Z,15.80
2023-01-05T13:12:35.926Z,11.32
2023-01-05T13:15:20.670Z,12.60
2023-01-05T13:17:56.146Z,13.13
2023-01-05T13:20:34.393Z,14.63
2023-01-05T13:23:06.502Z,11.80
2023-01-05T13:25:56.873Z,17.38
2023-01-05T13:28:29.698Z,15.45
2023-01-05T13:31:09.953Z,12.45
2023-01-05T13:34:09.975Z,20.70
2023-01-05T13:36:42.545Z,17.35
2023-01-05T13:39:52.459Z,14.00
2023-01-05T13:42:50.810Z,16.65
2023-01-05T13:45:32.167Z,19.15
2023-01-05T13:48:34.105Z,19.20
2023-01-05T13:51:35.647Z,19.40
2023-01-05T13:54:10.661Z,16.42
2023-01-05T13:56:40.500Z,15.23
2023-01-05T13:59:44.449Z,18.58
2023-01-05T14:02:34.389Z,17.52
2023-01-05T14:05:01.226Z,16.70
2023-01-05T14:07:28.266Z,14.18
2023-01-05T14:09:57.839Z,13.60
2023-01-05T14:12:41.382Z,21.52
2023-01-05T14:15:12.452Z,16.40
2023-01-05T14:17:59.002Z,12.30
2023-01-05T14:20:48.624Z,13.68
2023-01-05T14:23:26.695Z,14.43
2023-01-05T14:25:57.525Z,14.50
2023-01-05T14:28:30.270Z,14.65
2023-01-05T14:31:14.828Z,13.43
2023-01-05T14:33:50.396Z,14.25
2023-01-05T14:36:35.329Z,13.13
2023-01-05T14:39:07.074Z,15.25
2023-01-05T14:41:34.353Z,12.73
2023-01-05T14:44:07.172Z,13.05
2023-01-05T14:46:56.818Z,14.55
2023-01-05T14:49:52.597Z,15.70
2023-01-05T14:52:57.331Z,14.82
2023-01-05T14:55:38.636Z,12.27
2023-01-05T14:58:12.357Z,13.38
2023-01-05T15:00:56.366Z,20.58
2023-01-05T15:03:35.452Z,13.82
2023-01-05T15:06:13.371Z,11.25
2023-01-05T15:09:17.860Z,11.63
2023-01-05T15:12:11.415Z,19.80
2023-01-05T15:14:38.290Z,13.35
2023-01-05T15:17:14.056Z,14.98
2023-01-05T15:20:14.671Z,10.65
2023-01-05T15:23:23.023Z,19.17
2023-01-05T15:26:07.973Z,18.55
2023-01-05T15:28:52.991Z,13.88
2023-01-05T15:31:39.948Z,12.48
2023-01-05T15:34:33.903Z,15.38
2023-01-05T15:37:18.079Z,17.98
2023-01-05T15:39:50.237Z,15.63
2023-01-05T15:42:22.141Z,11.60
2023-01-05T15:44:51.661Z,13.27
2023-01-05T15:47:20.232Z,11.00
2023-01-05T15:49:49.124Z,12.32
2023-01-05T15:52:37.801Z,12.13
2023-01-05T15:55:14.959Z,11.45
2023-01-05T15:57:45.952Z,10.57
2023-01-05T16:00:25.065Z,16.40
2023-01-05T16:02:51.814Z,15.68
2023-01-05T16:05:21.989Z,15.23
2023-01-05T16:07:59.841Z,12.02
2023-01-05T16:10:37.536Z,14.00
2023-01-05T16:13:19.531Z,16.40
2023-01-05T16:15:59.363Z,11.57
2023-01-05T16:21:18.149Z,11.23
2023-01-05T16:23:52.068Z,9.95
2023-01-05T16:26:19.460Z,14.52
2023-01-05T16:28:46.303Z,14.55
2023-01-05T16:31:32.398Z,11.07
2023-01-05T16:34:05.263Z,13.20
2023-01-05T16:36:31.998Z,18.65
2023-01-05T16:39:25.067Z,13.85
2023-01-05T16:42:22.842Z,15.98
2023-01-05T16:44:56.565Z,14.63
2023-01-05T16:47:40.814Z,9.57
2023-01-05T16:50:30.880Z,17.08
2023-01-05T16:53:05.448Z,16.73
2023-01-05T16:55:35.664Z,14.55
2023-01-05T16:58:26.334Z,13.20
2023-01-05T17:00:53.096Z,12.68
2023-01-05T17:03:31.977Z,12.32
2023-01-05T17:06:00.325Z,9.57
2023-01-05T17:08:31.891Z,8.98
2023-01-05T17:11:01.454Z,13.02
2023-01-05T17:13:39.853Z,15.82
2023-01-05T17:16:07.011Z,12.65
2023-01-05T17:18:33.703Z,12.93
2023-01-05T17:21:00.902Z,12.18
2023-01-05T17:23:28.829Z,14.95
2023-01-05T17:25:59.924Z,14.52
2023-01-05T17:28:31.227Z,15.05
2023-01-05T17:31:00.656Z,13.18
2023-01-05T17:33:27.671Z,14.25
2023-01-05T17:35:55.333Z,9.68
2023-01-05T17:38:24.469Z,13.57
2023-01-05T17:40:51.221Z,14.68
2023-01-05T17:43:18.802Z,11.75
2023-01-05T17:45:48.329Z,12.88
2023-01-05T17:48:16.270Z,16.90
2023-01-05T17:50:43.992Z,14.38
2023-01-05T17:53:13.355Z,12.32
2023-01-05T17:55:41.508Z,12.18
2023-01-05T17:58:14.766Z,12.05
2023-01-05T18:03:22.313Z,12.07
2023-01-05T18:05:53.133Z,13.82
2023-01-05T18:08:21.184Z,20.05
2023-01-05T18:10:48.128Z,14.85
2023-01-05T18:13:16.782Z,12.10
2023-01-05T18:15:50.415Z,15.48
2023-01-05T18:18:21.254Z,13.43
2023-01-05T18:20:53.769Z,12.95
2023-01-05T18:23:20.753Z,15.90
2023-01-05T18:25:48.499Z,16.80
2023-01-05T18:28:15.304Z,13.15
2023-01-05T18:30:44.465Z,11.68
2023-01-05T18:35:44.088Z,14.25
2023-01-05T18:38:10.943Z,16.55
2023-01-05T18:40:39.897Z,12.45
2023-01-05T18:43:09.037Z,10.93
2023-01-05T18:45:40.599Z,11.57
2023-01-05T18:48:07.846Z,15.07
2023-01-05T18:50:34.635Z,10.48
2023-01-05T18:53:01.348Z,13.93
2023-01-05T18:55:28.144Z,14.60
2023-01-05T18:57:57.224Z,16.30
2023-01-05T19:00:23.967Z,11.50
2023-01-05T19:02:53.129Z,12.13
2023-01-05T19:05:19.883Z,14.90
2023-01-05T19:07:52.227Z,10.90
2023-01-05T19:10:21.956Z,10.07
2023-01-05T19:12:49.057Z,6.50
2023-01-05T19:15:15.808Z,4.82
2023-01-05T19:17:42.544Z,6.75
2023-01-05T19:20:09.609Z,5.03
2023-01-05T19:22:39.896Z,2.42
2023-01-05T19:25:07.072Z,4.00
2023-01-05T19:27:34.329Z,4.18
2023-01-05T19:30:06.055Z,5.53
2023-01-05T19:32:33.476Z,5.50
2023-01-05T19:35:02.419Z,6.07
2023-01-05T19:37:34.488Z,4.80
2023-01-05T19:40:03.485Z,4.88
2023-01-05T19:42:32.547Z,4.57
2023-01-05T19:44:59.322Z,2.33
2023-01-05T19:47:26.195Z,4.80
2023-01-05T19:49:53.159Z,4.35
2023-01-05T19:52:19.940Z,2.92
2023-01-05T19:54:51.407Z,5.45
2023-01-05T19:57:20.565Z,3.08
2023-01-05T19:59:47.320Z,10.82
2023-01-05T20:02:18.638Z,7.70
2023-01-05T20:04:48.638Z,12.98
2023-01-05T20:07:17.622Z,8.95
2023-01-05T20:09:44.370Z,9.43
2023-01-05T20:12:15.493Z,12.20
2023-01-05T20:14:45.837Z,11.63
2023-01-05T20:17:15.098Z,9.88
2023-01-05T20:19:43.956Z,6.70
2023-01-05T20:22:15.419Z,11.68
2023-01-05T20:24:43.104Z,15.00
2023-01-05T20:27:16.859Z,9.75
2023-01-05T20:29:45.889Z,11.82
2023-01-05T20:32:19.242Z,6.33
2023-01-05T20:34:52.035Z,8.18
2023-01-05T20:37:19.069Z,10.18
2023-01-05T20:39:45.839Z,8.73
2023-01-05T20:42:13.980Z,12.30
2023-01-05T20:44:46.371Z,9.80
2023-01-05T20:47:13.566Z,8.50
2023-01-05T20:49:45.173Z,8.90
2023-01-05T20:52:17.490Z,10.23
2023-01-05T20:54:46.592Z,8.70
2023-01-05T20:57:13.389Z,9.20
2023-01-05T20:59:42.628Z,9.10
2023-01-05T21:02:22.879Z,10.75
2023-01-05T21:04:54.155Z,7.63
2023-01-05T21:07:21.748Z,8.38
2023-01-05T21:09:54.079Z,9.75
2023-01-05T21:12:23.575Z,7.18
2023-01-05T21:14:52.750Z,8.27
2023-01-05T21:17:21.855Z,7.03
2023-01-05T21:19:53.232Z,6.40
2023-01-05T21:22:22.087Z,7.43
2023-01-05T21:24:48.740Z,7.28
2023-01-05T21:27:15.608Z,7.32
2023-01-05T21:29:44.704Z,11.05
2023-01-05T21:32:11.381Z,7.63
2023-01-05T21:34:38.187Z,7.72
2023-01-05T21:37:04.962Z,7.72
2023-01-05T21:39:31.750Z,5.70
2023-01-05T21:42:16.863Z,4.90
2023-01-05T21:44:43.638Z,8.75
2023-01-05T21:47:10.453Z,7.60
2023-01-05T21:49:39.716Z,5.10
2023-01-05T21:52:28.557Z,4.78
2023-01-05T21:55:14.122Z,8.60
2023-01-05T21:57:43.151Z,5.63
2023-01-05T22:00:10.580Z,5.83
2023-01-05T22:02:37.576Z,4.70
2023-01-05T22:05:04.804Z,5.50
2023-01-05T22:07:31.543Z,6.03
2023-01-05T22:09:58.305Z,6.10
2023-01-05T22:12:25.174Z,4.90
2023-01-05T22:14:56.881Z,4.88
2023-01-05T22:17:25.853Z,4.20
2023-01-05T22:19:55.328Z,6.60
2023-01-05T22:22:22.745Z,6.90
2023-01-05T22:24:49.476Z,7.35
2023-01-05T22:27:16.229Z,6.28
2023-01-05T22:29:42.939Z,4.95
2023-01-05T22:32:12.157Z,4.50
2023-01-05T22:34:43.686Z,4.43
2023-01-05T22:37:13.815Z,4.68
2023-01-05T22:39:40.589Z,5.00
2023-01-05T22:42:07.708Z,4.32
2023-01-05T22:44:34.643Z,4.78
2023-01-05T22:47:03.500Z,7.05
2023-01-05T22:49:32.762Z,3.00
2023-01-05T22:51:59.516Z,5.93
2023-01-05T22:54:29.595Z,2.90
2023-01-05T22:56:56.273Z,3.20
2023-01-05T22:59:23.619Z,4.40
2023-01-05T23:01:52.424Z,3.85
2023-01-05T23:04:19.179Z,3.45
2023-01-05T23:06:46.027Z,4.82
2023-01-05T23:09:17.751Z,3.40
2023-01-05T23:11:46.411Z,2.15
2023-01-05T23:14:13.937Z,3.67
2023-01-05T23:16:41.203Z,3.28
2023-01-05T23:19:11.291Z,6.47
2023-01-05T23:21:40.557Z,3.03
2023-01-05T23:24:07.655Z,4.55
2023-01-05T23:26:36.852Z,5.32
2023-01-05T23:29:03.800Z,5.68
2023-01-05T23:31:30.741Z,4.38
2023-01-05T23:33:57.555Z,3.95
2023-01-05T23:36:27.002Z,3.20
2023-01-05T23:38:53.718Z,3.25
2023-01-05T23:41:20.660Z,3.33
2023-01-05T23:43:47.433Z,3.88
2023-01-05T23:46:17.028Z,4.80
2023-01-05T23:48:44.264Z,5.22
2023-01-05T23:51:13.989Z,2.92
2023-01-05T23:53:42.805Z,7.65
2023-01-05T23:56:11.034Z,6.18
2023-01-05T23:58:41.026Z,3.78
